<?xml version="1.0" encoding="UTF-8" standalone="no" ?>
<gpx xmlns="http://www.topografix.com/GPX/1/1" xmlns:xsi="http://www.w3.org/2001/XMLSchema-instance" xsi:schemaLocation="http://www.topografix.com/GPX/1/1 http://www.topografix.com/GPX/1/1/gpx.xsd" version="1.1" creator="VisuGPX - https://www.visugpx.com">
  <metadata>
    <name>Astaffort 9 km</name>
  </metadata>
  <trk>
    <name><![CDATA[2024 06 08 Astaffort Pierre]]></name>
    <extensions>
      <line xmlns="http://www.topografix.com/GPX/gpx_style/0/2">
        <color>0000FF</color>
        <width>4</width>
      </line>
    </extensions>
    <trkseg>
      <trkpt lat="44.06346" lon="0.65115">
        <ele>84.1</ele>
        <time>2024-06-08T07:34:27.216Z</time>
      </trkpt>
      <trkpt lat="44.06341" lon="0.65117">
        <ele>84.4</ele>
        <time>2024-06-08T07:34:31.216Z</time>
      </trkpt>
      <trkpt lat="44.06339" lon="0.65121">
        <ele>84.6</ele>
        <time>2024-06-08T07:34:35.216Z</time>
      </trkpt>
      <trkpt lat="44.06336" lon="0.65123">
        <ele>84.8</ele>
        <time>2024-06-08T07:34:37.216Z</time>
      </trkpt>
      <trkpt lat="44.06328" lon="0.65118">
        <ele>85.2</ele>
        <time>2024-06-08T07:34:56.208Z</time>
      </trkpt>
      <trkpt lat="44.06326" lon="0.65121">
        <ele>85.3</ele>
        <time>2024-06-08T07:35:00.208Z</time>
      </trkpt>
      <trkpt lat="44.0632" lon="0.65134">
        <ele>85.5</ele>
        <time>2024-06-08T07:35:14.208Z</time>
      </trkpt>
      <trkpt lat="44.06318" lon="0.65137">
        <ele>85.5</ele>
        <time>2024-06-08T07:35:20.208Z</time>
      </trkpt>
      <trkpt lat="44.06313" lon="0.65146">
        <ele>85.8</ele>
        <time>2024-06-08T07:35:28.207Z</time>
      </trkpt>
      <trkpt lat="44.06303" lon="0.65168">
        <ele>86.2</ele>
        <time>2024-06-08T07:35:44.208Z</time>
      </trkpt>
      <trkpt lat="44.06297" lon="0.65179">
        <ele>86.5</ele>
        <time>2024-06-08T07:35:52.208Z</time>
      </trkpt>
      <trkpt lat="44.06291" lon="0.65187">
        <ele>86.7</ele>
        <time>2024-06-08T07:36:00.207Z</time>
      </trkpt>
      <trkpt lat="44.06281" lon="0.65192">
        <ele>87</ele>
        <time>2024-06-08T07:36:08.208Z</time>
      </trkpt>
      <trkpt lat="44.06271" lon="0.65199">
        <ele>87.6</ele>
        <time>2024-06-08T07:36:16.207Z</time>
      </trkpt>
      <trkpt lat="44.0627" lon="0.65202">
        <ele>87.7</ele>
        <time>2024-06-08T07:36:18.208Z</time>
      </trkpt>
      <trkpt lat="44.06266" lon="0.65205">
        <ele>87.9</ele>
        <time>2024-06-08T07:36:22.208Z</time>
      </trkpt>
      <trkpt lat="44.06256" lon="0.65221">
        <ele>88</ele>
        <time>2024-06-08T07:36:38.208Z</time>
      </trkpt>
      <trkpt lat="44.06238" lon="0.65273">
        <ele>87.6</ele>
        <time>2024-06-08T07:37:14.208Z</time>
      </trkpt>
      <trkpt lat="44.06236" lon="0.65278">
        <ele>87.5</ele>
        <time>2024-06-08T07:37:18.207Z</time>
      </trkpt>
      <trkpt lat="44.06232" lon="0.6529">
        <ele>87.6</ele>
        <time>2024-06-08T07:37:26.207Z</time>
      </trkpt>
      <trkpt lat="44.0623" lon="0.65297">
        <ele>87.7</ele>
        <time>2024-06-08T07:37:30.208Z</time>
      </trkpt>
      <trkpt lat="44.06229" lon="0.65304">
        <ele>87.8</ele>
        <time>2024-06-08T07:37:34.208Z</time>
      </trkpt>
      <trkpt lat="44.06231" lon="0.65322">
        <ele>87.5</ele>
        <time>2024-06-08T07:37:46.208Z</time>
      </trkpt>
      <trkpt lat="44.06233" lon="0.65324">
        <ele>87.4</ele>
        <time>2024-06-08T07:37:50.208Z</time>
      </trkpt>
      <trkpt lat="44.06236" lon="0.65325">
        <ele>87.2</ele>
        <time>2024-06-08T07:37:54.207Z</time>
      </trkpt>
      <trkpt lat="44.06263" lon="0.65343">
        <ele>85.2</ele>
        <time>2024-06-08T07:38:26.207Z</time>
      </trkpt>
      <trkpt lat="44.06267" lon="0.65347">
        <ele>84.9</ele>
        <time>2024-06-08T07:38:30.207Z</time>
      </trkpt>
      <trkpt lat="44.06281" lon="0.65355">
        <ele>84.1</ele>
        <time>2024-06-08T07:38:42.208Z</time>
      </trkpt>
      <trkpt lat="44.06293" lon="0.65366">
        <ele>82.9</ele>
        <time>2024-06-08T07:38:54.207Z</time>
      </trkpt>
      <trkpt lat="44.06296" lon="0.6537">
        <ele>82.7</ele>
        <time>2024-06-08T07:38:58.207Z</time>
      </trkpt>
      <trkpt lat="44.06303" lon="0.65377">
        <ele>82.2</ele>
        <time>2024-06-08T07:39:06.207Z</time>
      </trkpt>
      <trkpt lat="44.06356" lon="0.65416">
        <ele>79.4</ele>
        <time>2024-06-08T07:39:58.208Z</time>
      </trkpt>
      <trkpt lat="44.06364" lon="0.65416">
        <ele>78.8</ele>
        <time>2024-06-08T07:40:06.207Z</time>
      </trkpt>
      <trkpt lat="44.06366" lon="0.65417">
        <ele>78.7</ele>
        <time>2024-06-08T07:40:08.208Z</time>
      </trkpt>
      <trkpt lat="44.06374" lon="0.65425">
        <ele>78.4</ele>
        <time>2024-06-08T07:40:16.207Z</time>
      </trkpt>
      <trkpt lat="44.06381" lon="0.65436">
        <ele>78</ele>
        <time>2024-06-08T07:40:24.207Z</time>
      </trkpt>
      <trkpt lat="44.06401" lon="0.65494">
        <ele>75.6</ele>
        <time>2024-06-08T07:41:04.208Z</time>
      </trkpt>
      <trkpt lat="44.06416" lon="0.65526">
        <ele>72.1</ele>
        <time>2024-06-08T07:41:28.208Z</time>
      </trkpt>
      <trkpt lat="44.06424" lon="0.6554">
        <ele>71.5</ele>
        <time>2024-06-08T07:41:40.208Z</time>
      </trkpt>
      <trkpt lat="44.06431" lon="0.65546">
        <ele>71.5</ele>
        <time>2024-06-08T07:41:48.208Z</time>
      </trkpt>
      <trkpt lat="44.06438" lon="0.65554">
        <ele>71.7</ele>
        <time>2024-06-08T07:41:56.208Z</time>
      </trkpt>
      <trkpt lat="44.06446" lon="0.65569">
        <ele>72.9</ele>
        <time>2024-06-08T07:42:08.207Z</time>
      </trkpt>
      <trkpt lat="44.06448" lon="0.65575">
        <ele>73.4</ele>
        <time>2024-06-08T07:42:12.207Z</time>
      </trkpt>
      <trkpt lat="44.0645" lon="0.65581">
        <ele>74.2</ele>
        <time>2024-06-08T07:42:16.207Z</time>
      </trkpt>
      <trkpt lat="44.06455" lon="0.65585">
        <ele>75.2</ele>
        <time>2024-06-08T07:42:20.208Z</time>
      </trkpt>
      <trkpt lat="44.06461" lon="0.65596">
        <ele>77.2</ele>
        <time>2024-06-08T07:42:28.208Z</time>
      </trkpt>
      <trkpt lat="44.06464" lon="0.65607">
        <ele>78.7</ele>
        <time>2024-06-08T07:42:36.207Z</time>
      </trkpt>
      <trkpt lat="44.06467" lon="0.65625">
        <ele>80.6</ele>
        <time>2024-06-08T07:42:48.208Z</time>
      </trkpt>
      <trkpt lat="44.06463" lon="0.65638">
        <ele>80.6</ele>
        <time>2024-06-08T07:43:14.210Z</time>
      </trkpt>
      <trkpt lat="44.06464" lon="0.65649">
        <ele>81</ele>
        <time>2024-06-08T07:43:22.210Z</time>
      </trkpt>
      <trkpt lat="44.06463" lon="0.65657">
        <ele>81</ele>
        <time>2024-06-08T07:43:26.210Z</time>
      </trkpt>
      <trkpt lat="44.06464" lon="0.65663">
        <ele>81.4</ele>
        <time>2024-06-08T07:43:30.210Z</time>
      </trkpt>
      <trkpt lat="44.06461" lon="0.65679">
        <ele>82</ele>
        <time>2024-06-08T07:43:38.210Z</time>
      </trkpt>
      <trkpt lat="44.06462" lon="0.65698">
        <ele>84.1</ele>
        <time>2024-06-08T07:43:48.210Z</time>
      </trkpt>
      <trkpt lat="44.0646" lon="0.65705">
        <ele>84.1</ele>
        <time>2024-06-08T07:43:52.210Z</time>
      </trkpt>
      <trkpt lat="44.06456" lon="0.65741">
        <ele>85.2</ele>
        <time>2024-06-08T07:44:12.210Z</time>
      </trkpt>
      <trkpt lat="44.06455" lon="0.6577">
        <ele>84.4</ele>
        <time>2024-06-08T07:44:28.210Z</time>
      </trkpt>
      <trkpt lat="44.06454" lon="0.65777">
        <ele>83.7</ele>
        <time>2024-06-08T07:44:32.210Z</time>
      </trkpt>
      <trkpt lat="44.06454" lon="0.65791">
        <ele>84</ele>
        <time>2024-06-08T07:44:40.210Z</time>
      </trkpt>
      <trkpt lat="44.06453" lon="0.65799">
        <ele>83.5</ele>
        <time>2024-06-08T07:44:44.210Z</time>
      </trkpt>
      <trkpt lat="44.06453" lon="0.65813">
        <ele>84</ele>
        <time>2024-06-08T07:44:52.210Z</time>
      </trkpt>
      <trkpt lat="44.06452" lon="0.65818">
        <ele>83.5</ele>
        <time>2024-06-08T07:44:54.210Z</time>
      </trkpt>
      <trkpt lat="44.06451" lon="0.65818">
        <ele>83.1</ele>
        <time>2024-06-08T07:44:55.210Z</time>
      </trkpt>
      <trkpt lat="44.06451" lon="0.65834">
        <ele>83.7</ele>
        <time>2024-06-08T07:45:03.210Z</time>
      </trkpt>
      <trkpt lat="44.06446" lon="0.65857">
        <ele>84.1</ele>
        <time>2024-06-08T07:45:15.210Z</time>
      </trkpt>
      <trkpt lat="44.06443" lon="0.65863">
        <ele>83.9</ele>
        <time>2024-06-08T07:45:19.210Z</time>
      </trkpt>
      <trkpt lat="44.0644" lon="0.65874">
        <ele>85.3</ele>
        <time>2024-06-08T07:45:27.210Z</time>
      </trkpt>
      <trkpt lat="44.0644" lon="0.65878">
        <ele>86</ele>
        <time>2024-06-08T07:45:31.210Z</time>
      </trkpt>
      <trkpt lat="44.06436" lon="0.65891">
        <ele>86.8</ele>
        <time>2024-06-08T07:45:39.210Z</time>
      </trkpt>
      <trkpt lat="44.0641" lon="0.6592">
        <ele>89</ele>
        <time>2024-06-08T07:46:07.210Z</time>
      </trkpt>
      <trkpt lat="44.06404" lon="0.65923">
        <ele>88.3</ele>
        <time>2024-06-08T07:46:11.210Z</time>
      </trkpt>
      <trkpt lat="44.06399" lon="0.6593">
        <ele>88.2</ele>
        <time>2024-06-08T07:46:17.210Z</time>
      </trkpt>
      <trkpt lat="44.06395" lon="0.65933">
        <ele>88.1</ele>
        <time>2024-06-08T07:46:22.210Z</time>
      </trkpt>
      <trkpt lat="44.06388" lon="0.65941">
        <ele>88.1</ele>
        <time>2024-06-08T07:46:30.210Z</time>
      </trkpt>
      <trkpt lat="44.06381" lon="0.65951">
        <ele>87.3</ele>
        <time>2024-06-08T07:46:38.210Z</time>
      </trkpt>
      <trkpt lat="44.06376" lon="0.65962">
        <ele>87.4</ele>
        <time>2024-06-08T07:46:46.210Z</time>
      </trkpt>
      <trkpt lat="44.06371" lon="0.65972">
        <ele>88.1</ele>
        <time>2024-06-08T07:46:54.210Z</time>
      </trkpt>
      <trkpt lat="44.06361" lon="0.65997">
        <ele>88.8</ele>
        <time>2024-06-08T07:47:10.210Z</time>
      </trkpt>
      <trkpt lat="44.06356" lon="0.6602">
        <ele>89</ele>
        <time>2024-06-08T07:47:26.210Z</time>
      </trkpt>
      <trkpt lat="44.06346" lon="0.66042">
        <ele>89.1</ele>
        <time>2024-06-08T07:47:42.210Z</time>
      </trkpt>
      <trkpt lat="44.06341" lon="0.66054">
        <ele>89.4</ele>
        <time>2024-06-08T07:47:50.210Z</time>
      </trkpt>
      <trkpt lat="44.06336" lon="0.6608">
        <ele>89.2</ele>
        <time>2024-06-08T07:48:06.210Z</time>
      </trkpt>
      <trkpt lat="44.06331" lon="0.66094">
        <ele>88.7</ele>
        <time>2024-06-08T07:48:14.210Z</time>
      </trkpt>
      <trkpt lat="44.06328" lon="0.66108">
        <ele>88.2</ele>
        <time>2024-06-08T07:48:22.210Z</time>
      </trkpt>
      <trkpt lat="44.06318" lon="0.66131">
        <ele>88.3</ele>
        <time>2024-06-08T07:48:38.210Z</time>
      </trkpt>
      <trkpt lat="44.06317" lon="0.66143">
        <ele>89.1</ele>
        <time>2024-06-08T07:48:46.210Z</time>
      </trkpt>
      <trkpt lat="44.06311" lon="0.66156">
        <ele>90.1</ele>
        <time>2024-06-08T07:48:54.210Z</time>
      </trkpt>
      <trkpt lat="44.06306" lon="0.66162">
        <ele>90.5</ele>
        <time>2024-06-08T07:48:58.210Z</time>
      </trkpt>
      <trkpt lat="44.06299" lon="0.66174">
        <ele>89.9</ele>
        <time>2024-06-08T07:49:06.210Z</time>
      </trkpt>
      <trkpt lat="44.06297" lon="0.6618">
        <ele>89.9</ele>
        <time>2024-06-08T07:49:10.210Z</time>
      </trkpt>
      <trkpt lat="44.06293" lon="0.66186">
        <ele>89.6</ele>
        <time>2024-06-08T07:49:14.210Z</time>
      </trkpt>
      <trkpt lat="44.06293" lon="0.6619">
        <ele>89.8</ele>
        <time>2024-06-08T07:49:16.210Z</time>
      </trkpt>
      <trkpt lat="44.06282" lon="0.66213">
        <ele>88.5</ele>
        <time>2024-06-08T07:49:32.210Z</time>
      </trkpt>
      <trkpt lat="44.06278" lon="0.66226">
        <ele>87.9</ele>
        <time>2024-06-08T07:49:40.210Z</time>
      </trkpt>
      <trkpt lat="44.06281" lon="0.6624">
        <ele>88</ele>
        <time>2024-06-08T07:49:48.210Z</time>
      </trkpt>
      <trkpt lat="44.06281" lon="0.66246">
        <ele>87.8</ele>
        <time>2024-06-08T07:49:52.210Z</time>
      </trkpt>
      <trkpt lat="44.06282" lon="0.66251">
        <ele>88</ele>
        <time>2024-06-08T07:49:56.210Z</time>
      </trkpt>
      <trkpt lat="44.06282" lon="0.66263">
        <ele>88.5</ele>
        <time>2024-06-08T07:50:04.210Z</time>
      </trkpt>
      <trkpt lat="44.06281" lon="0.66266">
        <ele>88.5</ele>
        <time>2024-06-08T07:50:06.210Z</time>
      </trkpt>
      <trkpt lat="44.06286" lon="0.66291">
        <ele>90.9</ele>
        <time>2024-06-08T07:50:22.210Z</time>
      </trkpt>
      <trkpt lat="44.06287" lon="0.66313">
        <ele>92.6</ele>
        <time>2024-06-08T07:50:38.210Z</time>
      </trkpt>
      <trkpt lat="44.06287" lon="0.66318">
        <ele>92.9</ele>
        <time>2024-06-08T07:51:38.244Z</time>
      </trkpt>
      <trkpt lat="44.06287" lon="0.6633">
        <ele>94.1</ele>
        <time>2024-06-08T07:51:46.244Z</time>
      </trkpt>
      <trkpt lat="44.06291" lon="0.66343">
        <ele>95.1</ele>
        <time>2024-06-08T07:51:54.244Z</time>
      </trkpt>
      <trkpt lat="44.06301" lon="0.66371">
        <ele>96.5</ele>
        <time>2024-06-08T07:52:14.244Z</time>
      </trkpt>
      <trkpt lat="44.06305" lon="0.66383">
        <ele>96.3</ele>
        <time>2024-06-08T07:52:22.244Z</time>
      </trkpt>
      <trkpt lat="44.06315" lon="0.66405">
        <ele>99.1</ele>
        <time>2024-06-08T07:52:38.244Z</time>
      </trkpt>
      <trkpt lat="44.06322" lon="0.66416">
        <ele>100.5</ele>
        <time>2024-06-08T07:52:46.244Z</time>
      </trkpt>
      <trkpt lat="44.06342" lon="0.66462">
        <ele>102.1</ele>
        <time>2024-06-08T07:53:18.244Z</time>
      </trkpt>
      <trkpt lat="44.06353" lon="0.66485">
        <ele>103.2</ele>
        <time>2024-06-08T07:53:34.244Z</time>
      </trkpt>
      <trkpt lat="44.06358" lon="0.665">
        <ele>103.3</ele>
        <time>2024-06-08T07:53:44.244Z</time>
      </trkpt>
      <trkpt lat="44.06361" lon="0.66526">
        <ele>102.1</ele>
        <time>2024-06-08T07:54:00.244Z</time>
      </trkpt>
      <trkpt lat="44.06359" lon="0.66581">
        <ele>101.7</ele>
        <time>2024-06-08T07:54:32.244Z</time>
      </trkpt>
      <trkpt lat="44.06359" lon="0.66595">
        <ele>101.7</ele>
        <time>2024-06-08T07:54:40.244Z</time>
      </trkpt>
      <trkpt lat="44.06362" lon="0.66623">
        <ele>102.6</ele>
        <time>2024-06-08T07:54:56.244Z</time>
      </trkpt>
      <trkpt lat="44.06364" lon="0.66664">
        <ele>104.3</ele>
        <time>2024-06-08T07:55:20.244Z</time>
      </trkpt>
      <trkpt lat="44.06362" lon="0.66745">
        <ele>106</ele>
        <time>2024-06-08T07:56:08.244Z</time>
      </trkpt>
      <trkpt lat="44.06363" lon="0.66793">
        <ele>108.3</ele>
        <time>2024-06-08T07:56:36.244Z</time>
      </trkpt>
      <trkpt lat="44.0636" lon="0.66819">
        <ele>110.7</ele>
        <time>2024-06-08T07:56:52.244Z</time>
      </trkpt>
      <trkpt lat="44.06359" lon="0.66844">
        <ele>113</ele>
        <time>2024-06-08T07:57:08.244Z</time>
      </trkpt>
      <trkpt lat="44.06356" lon="0.6687">
        <ele>113.5</ele>
        <time>2024-06-08T07:57:24.244Z</time>
      </trkpt>
      <trkpt lat="44.06354" lon="0.66884">
        <ele>113.7</ele>
        <time>2024-06-08T07:57:32.244Z</time>
      </trkpt>
      <trkpt lat="44.06345" lon="0.66959">
        <ele>116.1</ele>
        <time>2024-06-08T07:58:20.244Z</time>
      </trkpt>
      <trkpt lat="44.06341" lon="0.6701">
        <ele>117.9</ele>
        <time>2024-06-08T07:58:52.244Z</time>
      </trkpt>
      <trkpt lat="44.06337" lon="0.67035">
        <ele>119</ele>
        <time>2024-06-08T07:59:08.244Z</time>
      </trkpt>
      <trkpt lat="44.06332" lon="0.67057">
        <ele>119</ele>
        <time>2024-06-08T07:59:24.244Z</time>
      </trkpt>
      <trkpt lat="44.06329" lon="0.67083">
        <ele>120.6</ele>
        <time>2024-06-08T07:59:40.244Z</time>
      </trkpt>
      <trkpt lat="44.06328" lon="0.67095">
        <ele>121.1</ele>
        <time>2024-06-08T07:59:48.244Z</time>
      </trkpt>
      <trkpt lat="44.06319" lon="0.67146">
        <ele>124.1</ele>
        <time>2024-06-08T08:00:20.244Z</time>
      </trkpt>
      <trkpt lat="44.06313" lon="0.6717">
        <ele>124.9</ele>
        <time>2024-06-08T08:00:36.244Z</time>
      </trkpt>
      <trkpt lat="44.06307" lon="0.67191">
        <ele>126.6</ele>
        <time>2024-06-08T08:00:52.244Z</time>
      </trkpt>
      <trkpt lat="44.06298" lon="0.67212">
        <ele>127.7</ele>
        <time>2024-06-08T08:01:08.244Z</time>
      </trkpt>
      <trkpt lat="44.06297" lon="0.67218">
        <ele>128.1</ele>
        <time>2024-06-08T08:01:12.244Z</time>
      </trkpt>
      <trkpt lat="44.06282" lon="0.67255">
        <ele>130.2</ele>
        <time>2024-06-08T08:01:36.244Z</time>
      </trkpt>
      <trkpt lat="44.06271" lon="0.67305">
        <ele>131.8</ele>
        <time>2024-06-08T08:02:08.244Z</time>
      </trkpt>
      <trkpt lat="44.06269" lon="0.67318">
        <ele>132.8</ele>
        <time>2024-06-08T08:02:16.244Z</time>
      </trkpt>
      <trkpt lat="44.06264" lon="0.67342">
        <ele>134.8</ele>
        <time>2024-06-08T08:02:32.244Z</time>
      </trkpt>
      <trkpt lat="44.0626" lon="0.67355">
        <ele>135.8</ele>
        <time>2024-06-08T08:02:40.244Z</time>
      </trkpt>
      <trkpt lat="44.06249" lon="0.67397">
        <ele>135.7</ele>
        <time>2024-06-08T08:04:07.659Z</time>
      </trkpt>
      <trkpt lat="44.06243" lon="0.67451">
        <ele>133.8</ele>
        <time>2024-06-08T08:07:57.253Z</time>
      </trkpt>
      <trkpt lat="44.06239" lon="0.67492">
        <ele>132.3</ele>
        <time>2024-06-08T08:08:21.253Z</time>
      </trkpt>
      <trkpt lat="44.06239" lon="0.67519">
        <ele>131.3</ele>
        <time>2024-06-08T08:08:37.253Z</time>
      </trkpt>
      <trkpt lat="44.06236" lon="0.67564">
        <ele>130.3</ele>
        <time>2024-06-08T08:09:05.253Z</time>
      </trkpt>
      <trkpt lat="44.06235" lon="0.67571">
        <ele>130.2</ele>
        <time>2024-06-08T08:09:09.253Z</time>
      </trkpt>
      <trkpt lat="44.06236" lon="0.67627">
        <ele>130.5</ele>
        <time>2024-06-08T08:09:41.253Z</time>
      </trkpt>
      <trkpt lat="44.06235" lon="0.67736">
        <ele>130</ele>
        <time>2024-06-08T08:10:45.253Z</time>
      </trkpt>
      <trkpt lat="44.06236" lon="0.67793">
        <ele>129.5</ele>
        <time>2024-06-08T08:11:17.253Z</time>
      </trkpt>
      <trkpt lat="44.06235" lon="0.67889">
        <ele>129.6</ele>
        <time>2024-06-08T08:12:13.253Z</time>
      </trkpt>
      <trkpt lat="44.06234" lon="0.67932">
        <ele>129.6</ele>
        <time>2024-06-08T08:12:37.253Z</time>
      </trkpt>
      <trkpt lat="44.06232" lon="0.67938">
        <ele>129.5</ele>
        <time>2024-06-08T08:12:41.253Z</time>
      </trkpt>
      <trkpt lat="44.06233" lon="0.68021">
        <ele>128.9</ele>
        <time>2024-06-08T08:13:29.253Z</time>
      </trkpt>
      <trkpt lat="44.06232" lon="0.68035">
        <ele>128.8</ele>
        <time>2024-06-08T08:13:37.253Z</time>
      </trkpt>
      <trkpt lat="44.06232" lon="0.6805">
        <ele>128.4</ele>
        <time>2024-06-08T08:13:45.253Z</time>
      </trkpt>
      <trkpt lat="44.06231" lon="0.68066">
        <ele>128.5</ele>
        <time>2024-06-08T08:13:53.253Z</time>
      </trkpt>
      <trkpt lat="44.06232" lon="0.68122">
        <ele>128.5</ele>
        <time>2024-06-08T08:14:25.253Z</time>
      </trkpt>
      <trkpt lat="44.06231" lon="0.68142">
        <ele>128.4</ele>
        <time>2024-06-08T08:14:41.253Z</time>
      </trkpt>
      <trkpt lat="44.06231" lon="0.68184">
        <ele>128.4</ele>
        <time>2024-06-08T08:15:05.253Z</time>
      </trkpt>
      <trkpt lat="44.06232" lon="0.68197">
        <ele>128.3</ele>
        <time>2024-06-08T08:15:13.253Z</time>
      </trkpt>
      <trkpt lat="44.06234" lon="0.68209">
        <ele>128.4</ele>
        <time>2024-06-08T08:15:21.253Z</time>
      </trkpt>
      <trkpt lat="44.06244" lon="0.68233">
        <ele>128.6</ele>
        <time>2024-06-08T08:15:37.253Z</time>
      </trkpt>
      <trkpt lat="44.06248" lon="0.68247">
        <ele>129</ele>
        <time>2024-06-08T08:15:45.253Z</time>
      </trkpt>
      <trkpt lat="44.0625" lon="0.6826">
        <ele>129</ele>
        <time>2024-06-08T08:15:53.253Z</time>
      </trkpt>
      <trkpt lat="44.06251" lon="0.68287">
        <ele>129</ele>
        <time>2024-06-08T08:16:09.253Z</time>
      </trkpt>
      <trkpt lat="44.06252" lon="0.68302">
        <ele>129</ele>
        <time>2024-06-08T08:16:17.253Z</time>
      </trkpt>
      <trkpt lat="44.06253" lon="0.68383">
        <ele>130</ele>
        <time>2024-06-08T08:17:05.253Z</time>
      </trkpt>
      <trkpt lat="44.06256" lon="0.68445">
        <ele>131</ele>
        <time>2024-06-08T08:17:45.253Z</time>
      </trkpt>
      <trkpt lat="44.06258" lon="0.68455">
        <ele>131</ele>
        <time>2024-06-08T08:17:53.253Z</time>
      </trkpt>
      <trkpt lat="44.06261" lon="0.68459">
        <ele>131</ele>
        <time>2024-06-08T08:19:04.254Z</time>
      </trkpt>
      <trkpt lat="44.06269" lon="0.68461">
        <ele>131</ele>
        <time>2024-06-08T08:19:12.255Z</time>
      </trkpt>
      <trkpt lat="44.06273" lon="0.68461">
        <ele>131</ele>
        <time>2024-06-08T08:19:23.392Z</time>
      </trkpt>
      <trkpt lat="44.06275" lon="0.68462">
        <ele>131</ele>
        <time>2024-06-08T08:19:33.546Z</time>
      </trkpt>
      <trkpt lat="44.0628" lon="0.6846">
        <ele>131</ele>
        <time>2024-06-08T08:19:50.644Z</time>
      </trkpt>
      <trkpt lat="44.06304" lon="0.68434">
        <ele>130.6</ele>
        <time>2024-06-08T08:20:22.644Z</time>
      </trkpt>
      <trkpt lat="44.0631" lon="0.68425">
        <ele>130.2</ele>
        <time>2024-06-08T08:20:30.644Z</time>
      </trkpt>
      <trkpt lat="44.06317" lon="0.68416">
        <ele>130</ele>
        <time>2024-06-08T08:20:38.644Z</time>
      </trkpt>
      <trkpt lat="44.06323" lon="0.68408">
        <ele>129.8</ele>
        <time>2024-06-08T08:20:46.644Z</time>
      </trkpt>
      <trkpt lat="44.06328" lon="0.68404">
        <ele>129.6</ele>
        <time>2024-06-08T08:20:50.644Z</time>
      </trkpt>
      <trkpt lat="44.0635" lon="0.68377">
        <ele>128.7</ele>
        <time>2024-06-08T08:21:14.644Z</time>
      </trkpt>
      <trkpt lat="44.06366" lon="0.6836">
        <ele>127.8</ele>
        <time>2024-06-08T08:21:30.644Z</time>
      </trkpt>
      <trkpt lat="44.06378" lon="0.68342">
        <ele>127.1</ele>
        <time>2024-06-08T08:21:46.644Z</time>
      </trkpt>
      <trkpt lat="44.06407" lon="0.68307">
        <ele>125.4</ele>
        <time>2024-06-08T08:22:27.633Z</time>
      </trkpt>
      <trkpt lat="44.06447" lon="0.68253">
        <ele>123</ele>
        <time>2024-06-08T08:23:15.633Z</time>
      </trkpt>
      <trkpt lat="44.06493" lon="0.68197">
        <ele>120.3</ele>
        <time>2024-06-08T08:24:07.633Z</time>
      </trkpt>
      <trkpt lat="44.065" lon="0.68191">
        <ele>119.9</ele>
        <time>2024-06-08T08:24:15.633Z</time>
      </trkpt>
      <trkpt lat="44.06531" lon="0.6815">
        <ele>117.4</ele>
        <time>2024-06-08T08:24:51.633Z</time>
      </trkpt>
      <trkpt lat="44.06543" lon="0.6814">
        <ele>117.5</ele>
        <time>2024-06-08T08:25:03.633Z</time>
      </trkpt>
      <trkpt lat="44.06558" lon="0.68124">
        <ele>118.7</ele>
        <time>2024-06-08T08:25:19.633Z</time>
      </trkpt>
      <trkpt lat="44.06566" lon="0.68116">
        <ele>119.4</ele>
        <time>2024-06-08T08:25:27.633Z</time>
      </trkpt>
      <trkpt lat="44.0658" lon="0.681">
        <ele>121.1</ele>
        <time>2024-06-08T08:25:43.633Z</time>
      </trkpt>
      <trkpt lat="44.06595" lon="0.68085">
        <ele>122.3</ele>
        <time>2024-06-08T08:25:59.633Z</time>
      </trkpt>
      <trkpt lat="44.06599" lon="0.68081">
        <ele>122.6</ele>
        <time>2024-06-08T08:26:03.633Z</time>
      </trkpt>
      <trkpt lat="44.06615" lon="0.68062">
        <ele>124</ele>
        <time>2024-06-08T08:26:23.633Z</time>
      </trkpt>
      <trkpt lat="44.06618" lon="0.68061">
        <ele>124.3</ele>
        <time>2024-06-08T08:26:27.633Z</time>
      </trkpt>
      <trkpt lat="44.06632" lon="0.68045">
        <ele>126.2</ele>
        <time>2024-06-08T08:26:43.633Z</time>
      </trkpt>
      <trkpt lat="44.06637" lon="0.68037">
        <ele>127.1</ele>
        <time>2024-06-08T08:26:51.633Z</time>
      </trkpt>
      <trkpt lat="44.06639" lon="0.68035">
        <ele>127.5</ele>
        <time>2024-06-08T08:26:55.633Z</time>
      </trkpt>
      <trkpt lat="44.06639" lon="0.68028">
        <ele>128</ele>
        <time>2024-06-08T08:28:00.846Z</time>
      </trkpt>
      <trkpt lat="44.06637" lon="0.68025">
        <ele>127.8</ele>
        <time>2024-06-08T08:28:04.846Z</time>
      </trkpt>
      <trkpt lat="44.06632" lon="0.68015">
        <ele>127.4</ele>
        <time>2024-06-08T08:28:12.846Z</time>
      </trkpt>
      <trkpt lat="44.06625" lon="0.67989">
        <ele>127.4</ele>
        <time>2024-06-08T08:28:28.846Z</time>
      </trkpt>
      <trkpt lat="44.06619" lon="0.67956">
        <ele>127.7</ele>
        <time>2024-06-08T08:28:48.846Z</time>
      </trkpt>
      <trkpt lat="44.0662" lon="0.67917">
        <ele>128.6</ele>
        <time>2024-06-08T08:29:12.846Z</time>
      </trkpt>
      <trkpt lat="44.06623" lon="0.67914">
        <ele>129</ele>
        <time>2024-06-08T08:29:22.324Z</time>
      </trkpt>
      <trkpt lat="44.06627" lon="0.67914">
        <ele>129.2</ele>
        <time>2024-06-08T08:29:26.324Z</time>
      </trkpt>
      <trkpt lat="44.06633" lon="0.67918">
        <ele>129.5</ele>
        <time>2024-06-08T08:29:34.324Z</time>
      </trkpt>
      <trkpt lat="44.0664" lon="0.67922">
        <ele>130.1</ele>
        <time>2024-06-08T08:29:42.324Z</time>
      </trkpt>
      <trkpt lat="44.06664" lon="0.67936">
        <ele>131.2</ele>
        <time>2024-06-08T08:30:06.324Z</time>
      </trkpt>
      <trkpt lat="44.06689" lon="0.67946">
        <ele>131.8</ele>
        <time>2024-06-08T08:30:30.324Z</time>
      </trkpt>
      <trkpt lat="44.06697" lon="0.67951">
        <ele>132.2</ele>
        <time>2024-06-08T08:30:38.324Z</time>
      </trkpt>
      <trkpt lat="44.06705" lon="0.67954">
        <ele>132.8</ele>
        <time>2024-06-08T08:30:46.324Z</time>
      </trkpt>
      <trkpt lat="44.06713" lon="0.67959">
        <ele>133.3</ele>
        <time>2024-06-08T08:30:54.324Z</time>
      </trkpt>
      <trkpt lat="44.0672" lon="0.67963">
        <ele>133.6</ele>
        <time>2024-06-08T08:31:02.324Z</time>
      </trkpt>
      <trkpt lat="44.06748" lon="0.67986">
        <ele>134.8</ele>
        <time>2024-06-08T08:31:38.807Z</time>
      </trkpt>
      <trkpt lat="44.06756" lon="0.67991">
        <ele>135.2</ele>
        <time>2024-06-08T08:31:46.807Z</time>
      </trkpt>
      <trkpt lat="44.06762" lon="0.67997">
        <ele>135.5</ele>
        <time>2024-06-08T08:31:54.807Z</time>
      </trkpt>
      <trkpt lat="44.06772" lon="0.68002">
        <ele>136.2</ele>
        <time>2024-06-08T08:32:02.807Z</time>
      </trkpt>
      <trkpt lat="44.06776" lon="0.68004">
        <ele>136.5</ele>
        <time>2024-06-08T08:32:06.807Z</time>
      </trkpt>
      <trkpt lat="44.06796" lon="0.68019">
        <ele>137.6</ele>
        <time>2024-06-08T08:32:26.807Z</time>
      </trkpt>
      <trkpt lat="44.06799" lon="0.6802">
        <ele>137.9</ele>
        <time>2024-06-08T08:32:30.807Z</time>
      </trkpt>
      <trkpt lat="44.06809" lon="0.68028">
        <ele>138.2</ele>
        <time>2024-06-08T08:32:38.807Z</time>
      </trkpt>
      <trkpt lat="44.06816" lon="0.68032">
        <ele>138.4</ele>
        <time>2024-06-08T08:32:44.807Z</time>
      </trkpt>
      <trkpt lat="44.06818" lon="0.68037">
        <ele>138.3</ele>
        <time>2024-06-08T08:32:48.807Z</time>
      </trkpt>
      <trkpt lat="44.06824" lon="0.68039">
        <ele>138.5</ele>
        <time>2024-06-08T08:32:56.807Z</time>
      </trkpt>
      <trkpt lat="44.06833" lon="0.68048">
        <ele>138.5</ele>
        <time>2024-06-08T08:33:12.807Z</time>
      </trkpt>
      <trkpt lat="44.06839" lon="0.68053">
        <ele>138.6</ele>
        <time>2024-06-08T08:33:18.807Z</time>
      </trkpt>
      <trkpt lat="44.06841" lon="0.68056">
        <ele>138.5</ele>
        <time>2024-06-08T08:33:20.807Z</time>
      </trkpt>
      <trkpt lat="44.06858" lon="0.68068">
        <ele>138.5</ele>
        <time>2024-06-08T08:33:36.807Z</time>
      </trkpt>
      <trkpt lat="44.06874" lon="0.68077">
        <ele>137.9</ele>
        <time>2024-06-08T08:33:52.807Z</time>
      </trkpt>
      <trkpt lat="44.06882" lon="0.68079">
        <ele>137.6</ele>
        <time>2024-06-08T08:34:00.807Z</time>
      </trkpt>
      <trkpt lat="44.06889" lon="0.68083">
        <ele>137</ele>
        <time>2024-06-08T08:34:15.219Z</time>
      </trkpt>
      <trkpt lat="44.06905" lon="0.68091">
        <ele>136.9</ele>
        <time>2024-06-08T08:34:40.381Z</time>
      </trkpt>
      <trkpt lat="44.06913" lon="0.68098">
        <ele>136.4</ele>
        <time>2024-06-08T08:34:48.381Z</time>
      </trkpt>
      <trkpt lat="44.06938" lon="0.68112">
        <ele>135.7</ele>
        <time>2024-06-08T08:35:12.381Z</time>
      </trkpt>
      <trkpt lat="44.06985" lon="0.68136">
        <ele>134.7</ele>
        <time>2024-06-08T08:35:56.381Z</time>
      </trkpt>
      <trkpt lat="44.06992" lon="0.68143">
        <ele>134.4</ele>
        <time>2024-06-08T08:36:04.381Z</time>
      </trkpt>
      <trkpt lat="44.07002" lon="0.68148">
        <ele>134.4</ele>
        <time>2024-06-08T08:36:12.381Z</time>
      </trkpt>
      <trkpt lat="44.07015" lon="0.68161">
        <ele>134</ele>
        <time>2024-06-08T08:36:28.381Z</time>
      </trkpt>
      <trkpt lat="44.0703" lon="0.6817">
        <ele>133.8</ele>
        <time>2024-06-08T08:36:44.381Z</time>
      </trkpt>
      <trkpt lat="44.07036" lon="0.68177">
        <ele>133.6</ele>
        <time>2024-06-08T08:36:52.381Z</time>
      </trkpt>
      <trkpt lat="44.07061" lon="0.68196">
        <ele>133.1</ele>
        <time>2024-06-08T08:37:32.444Z</time>
      </trkpt>
      <trkpt lat="44.07071" lon="0.68206">
        <ele>132.9</ele>
        <time>2024-06-08T08:37:44.444Z</time>
      </trkpt>
      <trkpt lat="44.07076" lon="0.68209">
        <ele>133.1</ele>
        <time>2024-06-08T08:37:48.444Z</time>
      </trkpt>
      <trkpt lat="44.0708" lon="0.68213">
        <ele>133.1</ele>
        <time>2024-06-08T08:37:52.443Z</time>
      </trkpt>
      <trkpt lat="44.07095" lon="0.68222">
        <ele>133.4</ele>
        <time>2024-06-08T08:38:08.444Z</time>
      </trkpt>
      <trkpt lat="44.07099" lon="0.68228">
        <ele>133.3</ele>
        <time>2024-06-08T08:38:14.444Z</time>
      </trkpt>
      <trkpt lat="44.07104" lon="0.6823">
        <ele>133.4</ele>
        <time>2024-06-08T08:38:18.443Z</time>
      </trkpt>
      <trkpt lat="44.07113" lon="0.68238">
        <ele>133.4</ele>
        <time>2024-06-08T08:38:30.443Z</time>
      </trkpt>
      <trkpt lat="44.07132" lon="0.6825">
        <ele>133.8</ele>
        <time>2024-06-08T08:38:46.443Z</time>
      </trkpt>
      <trkpt lat="44.0714" lon="0.68253">
        <ele>133.8</ele>
        <time>2024-06-08T08:39:10.078Z</time>
      </trkpt>
      <trkpt lat="44.07143" lon="0.68254">
        <ele>133.6</ele>
        <time>2024-06-08T08:39:44.104Z</time>
      </trkpt>
      <trkpt lat="44.07146" lon="0.68255">
        <ele>133.4</ele>
        <time>2024-06-08T08:40:10.245Z</time>
      </trkpt>
      <trkpt lat="44.07153" lon="0.6826">
        <ele>133</ele>
        <time>2024-06-08T08:40:24.245Z</time>
      </trkpt>
      <trkpt lat="44.07165" lon="0.68263">
        <ele>132.5</ele>
        <time>2024-06-08T08:40:46.312Z</time>
      </trkpt>
      <trkpt lat="44.0717" lon="0.68263">
        <ele>132.4</ele>
        <time>2024-06-08T08:40:50.312Z</time>
      </trkpt>
      <trkpt lat="44.07184" lon="0.68268">
        <ele>132.4</ele>
        <time>2024-06-08T08:40:58.312Z</time>
      </trkpt>
      <trkpt lat="44.07205" lon="0.68274">
        <ele>133.1</ele>
        <time>2024-06-08T08:41:14.312Z</time>
      </trkpt>
      <trkpt lat="44.07242" lon="0.68279">
        <ele>133.9</ele>
        <time>2024-06-08T08:41:46.312Z</time>
      </trkpt>
      <trkpt lat="44.07274" lon="0.6828">
        <ele>132.9</ele>
        <time>2024-06-08T08:42:22.810Z</time>
      </trkpt>
      <trkpt lat="44.07289" lon="0.68279">
        <ele>132.1</ele>
        <time>2024-06-08T08:42:38.810Z</time>
      </trkpt>
      <trkpt lat="44.07296" lon="0.68277">
        <ele>131.8</ele>
        <time>2024-06-08T08:42:46.810Z</time>
      </trkpt>
      <trkpt lat="44.07306" lon="0.68276">
        <ele>131.1</ele>
        <time>2024-06-08T08:42:54.810Z</time>
      </trkpt>
      <trkpt lat="44.07314" lon="0.68274">
        <ele>130.7</ele>
        <time>2024-06-08T08:43:02.810Z</time>
      </trkpt>
      <trkpt lat="44.07324" lon="0.6827">
        <ele>130.5</ele>
        <time>2024-06-08T08:43:10.810Z</time>
      </trkpt>
      <trkpt lat="44.07335" lon="0.68268">
        <ele>130.2</ele>
        <time>2024-06-08T08:43:18.810Z</time>
      </trkpt>
      <trkpt lat="44.07356" lon="0.6827">
        <ele>131</ele>
        <time>2024-06-08T08:43:34.810Z</time>
      </trkpt>
      <trkpt lat="44.07375" lon="0.68275">
        <ele>131.6</ele>
        <time>2024-06-08T08:43:50.810Z</time>
      </trkpt>
      <trkpt lat="44.07433" lon="0.683">
        <ele>133.8</ele>
        <time>2024-06-08T08:44:38.810Z</time>
      </trkpt>
      <trkpt lat="44.07453" lon="0.6831">
        <ele>135.8</ele>
        <time>2024-06-08T08:44:56.810Z</time>
      </trkpt>
      <trkpt lat="44.07454" lon="0.68314">
        <ele>135.8</ele>
        <time>2024-06-08T08:45:00.810Z</time>
      </trkpt>
      <trkpt lat="44.07484" lon="0.68328">
        <ele>138.4</ele>
        <time>2024-06-08T08:45:35.810Z</time>
      </trkpt>
      <trkpt lat="44.07491" lon="0.68333">
        <ele>139</ele>
        <time>2024-06-08T08:45:43.810Z</time>
      </trkpt>
      <trkpt lat="44.07516" lon="0.68346">
        <ele>141.8</ele>
        <time>2024-06-08T08:46:07.810Z</time>
      </trkpt>
      <trkpt lat="44.07542" lon="0.68355">
        <ele>145.1</ele>
        <time>2024-06-08T08:47:04.807Z</time>
      </trkpt>
      <trkpt lat="44.07545" lon="0.68355">
        <ele>145.6</ele>
        <time>2024-06-08T08:47:08.807Z</time>
      </trkpt>
      <trkpt lat="44.07548" lon="0.68353">
        <ele>146</ele>
        <time>2024-06-08T08:47:12.807Z</time>
      </trkpt>
      <trkpt lat="44.07551" lon="0.68353">
        <ele>146.4</ele>
        <time>2024-06-08T08:47:16.807Z</time>
      </trkpt>
      <trkpt lat="44.07562" lon="0.68357">
        <ele>147.7</ele>
        <time>2024-06-08T08:51:29.587Z</time>
      </trkpt>
      <trkpt lat="44.0757" lon="0.6835">
        <ele>148.9</ele>
        <time>2024-06-08T08:51:37.587Z</time>
      </trkpt>
      <trkpt lat="44.07573" lon="0.68346">
        <ele>149.5</ele>
        <time>2024-06-08T08:51:41.587Z</time>
      </trkpt>
      <trkpt lat="44.07579" lon="0.68321">
        <ele>151.3</ele>
        <time>2024-06-08T08:51:57.587Z</time>
      </trkpt>
      <trkpt lat="44.07586" lon="0.68304">
        <ele>152.2</ele>
        <time>2024-06-08T08:52:09.587Z</time>
      </trkpt>
      <trkpt lat="44.07597" lon="0.68285">
        <ele>153.4</ele>
        <time>2024-06-08T08:52:25.587Z</time>
      </trkpt>
      <trkpt lat="44.07617" lon="0.68258">
        <ele>154.9</ele>
        <time>2024-06-08T08:52:49.587Z</time>
      </trkpt>
      <trkpt lat="44.0763" lon="0.68237">
        <ele>154.9</ele>
        <time>2024-06-08T08:53:05.587Z</time>
      </trkpt>
      <trkpt lat="44.0764" lon="0.68224">
        <ele>155</ele>
        <time>2024-06-08T08:53:17.587Z</time>
      </trkpt>
      <trkpt lat="44.07652" lon="0.68204">
        <ele>154.5</ele>
        <time>2024-06-08T08:53:33.587Z</time>
      </trkpt>
      <trkpt lat="44.07654" lon="0.68199">
        <ele>154.5</ele>
        <time>2024-06-08T08:53:37.587Z</time>
      </trkpt>
      <trkpt lat="44.0767" lon="0.68175">
        <ele>155.7</ele>
        <time>2024-06-08T08:53:57.587Z</time>
      </trkpt>
      <trkpt lat="44.07674" lon="0.68164">
        <ele>156</ele>
        <time>2024-06-08T08:54:05.587Z</time>
      </trkpt>
      <trkpt lat="44.07681" lon="0.68154">
        <ele>156.4</ele>
        <time>2024-06-08T08:54:13.587Z</time>
      </trkpt>
      <trkpt lat="44.07685" lon="0.68151">
        <ele>156.7</ele>
        <time>2024-06-08T08:54:17.587Z</time>
      </trkpt>
      <trkpt lat="44.07689" lon="0.68141">
        <ele>157.5</ele>
        <time>2024-06-08T08:54:25.587Z</time>
      </trkpt>
      <trkpt lat="44.07695" lon="0.68131">
        <ele>158.3</ele>
        <time>2024-06-08T08:54:33.587Z</time>
      </trkpt>
      <trkpt lat="44.077" lon="0.68121">
        <ele>158.7</ele>
        <time>2024-06-08T08:54:41.587Z</time>
      </trkpt>
      <trkpt lat="44.07707" lon="0.68111">
        <ele>159.4</ele>
        <time>2024-06-08T08:54:49.587Z</time>
      </trkpt>
      <trkpt lat="44.07728" lon="0.68073">
        <ele>161.6</ele>
        <time>2024-06-08T08:55:21.587Z</time>
      </trkpt>
      <trkpt lat="44.07739" lon="0.68057">
        <ele>162.6</ele>
        <time>2024-06-08T08:55:37.587Z</time>
      </trkpt>
      <trkpt lat="44.07743" lon="0.68047">
        <ele>162.9</ele>
        <time>2024-06-08T08:55:45.587Z</time>
      </trkpt>
      <trkpt lat="44.07746" lon="0.68037">
        <ele>163.4</ele>
        <time>2024-06-08T08:55:53.587Z</time>
      </trkpt>
      <trkpt lat="44.07759" lon="0.68012">
        <ele>162.4</ele>
        <time>2024-06-08T08:56:17.587Z</time>
      </trkpt>
      <trkpt lat="44.07764" lon="0.67999">
        <ele>161.4</ele>
        <time>2024-06-08T08:56:29.587Z</time>
      </trkpt>
      <trkpt lat="44.07766" lon="0.67994">
        <ele>161</ele>
        <time>2024-06-08T08:56:38.993Z</time>
      </trkpt>
      <trkpt lat="44.07771" lon="0.67983">
        <ele>160</ele>
        <time>2024-06-08T08:56:46.993Z</time>
      </trkpt>
      <trkpt lat="44.07774" lon="0.67972">
        <ele>159.2</ele>
        <time>2024-06-08T08:56:54.993Z</time>
      </trkpt>
      <trkpt lat="44.07786" lon="0.67947">
        <ele>156.2</ele>
        <time>2024-06-08T08:57:28.099Z</time>
      </trkpt>
      <trkpt lat="44.07791" lon="0.67936">
        <ele>155</ele>
        <time>2024-06-08T08:59:38.322Z</time>
      </trkpt>
      <trkpt lat="44.07804" lon="0.6791">
        <ele>151</ele>
        <time>2024-06-08T08:59:58.874Z</time>
      </trkpt>
      <trkpt lat="44.07808" lon="0.67905">
        <ele>150.2</ele>
        <time>2024-06-08T09:00:02.874Z</time>
      </trkpt>
      <trkpt lat="44.07833" lon="0.67861">
        <ele>144</ele>
        <time>2024-06-08T09:00:34.874Z</time>
      </trkpt>
      <trkpt lat="44.07841" lon="0.67846">
        <ele>143.7</ele>
        <time>2024-06-08T09:00:50.874Z</time>
      </trkpt>
      <trkpt lat="44.07844" lon="0.67843">
        <ele>143.4</ele>
        <time>2024-06-08T09:00:54.874Z</time>
      </trkpt>
      <trkpt lat="44.07847" lon="0.67839">
        <ele>143</ele>
        <time>2024-06-08T09:00:58.874Z</time>
      </trkpt>
      <trkpt lat="44.07852" lon="0.67827">
        <ele>142</ele>
        <time>2024-06-08T09:01:06.874Z</time>
      </trkpt>
      <trkpt lat="44.07862" lon="0.67807">
        <ele>139.1</ele>
        <time>2024-06-08T09:01:22.874Z</time>
      </trkpt>
      <trkpt lat="44.07868" lon="0.67795">
        <ele>139</ele>
        <time>2024-06-08T09:01:30.874Z</time>
      </trkpt>
      <trkpt lat="44.07873" lon="0.67788">
        <ele>138.7</ele>
        <time>2024-06-08T09:01:36.874Z</time>
      </trkpt>
      <trkpt lat="44.07886" lon="0.67755">
        <ele>136.5</ele>
        <time>2024-06-08T09:01:56.874Z</time>
      </trkpt>
      <trkpt lat="44.07895" lon="0.67738">
        <ele>135.7</ele>
        <time>2024-06-08T09:02:08.874Z</time>
      </trkpt>
      <trkpt lat="44.079" lon="0.67724">
        <ele>135.3</ele>
        <time>2024-06-08T09:02:16.874Z</time>
      </trkpt>
      <trkpt lat="44.07916" lon="0.6769">
        <ele>132.9</ele>
        <time>2024-06-08T09:02:40.874Z</time>
      </trkpt>
      <trkpt lat="44.07921" lon="0.67678">
        <ele>132.3</ele>
        <time>2024-06-08T09:02:48.874Z</time>
      </trkpt>
      <trkpt lat="44.07932" lon="0.67655">
        <ele>131.2</ele>
        <time>2024-06-08T09:03:04.874Z</time>
      </trkpt>
      <trkpt lat="44.07942" lon="0.67631">
        <ele>130.2</ele>
        <time>2024-06-08T09:03:20.874Z</time>
      </trkpt>
      <trkpt lat="44.0796" lon="0.67595">
        <ele>129.4</ele>
        <time>2024-06-08T09:03:44.874Z</time>
      </trkpt>
      <trkpt lat="44.07966" lon="0.67588">
        <ele>129.2</ele>
        <time>2024-06-08T09:03:50.874Z</time>
      </trkpt>
      <trkpt lat="44.07965" lon="0.67587">
        <ele>129.3</ele>
        <time>2024-06-08T09:04:11.940Z</time>
      </trkpt>
      <trkpt lat="44.07968" lon="0.67577">
        <ele>129.1</ele>
        <time>2024-06-08T09:04:19.940Z</time>
      </trkpt>
      <trkpt lat="44.07974" lon="0.67567">
        <ele>128.9</ele>
        <time>2024-06-08T09:04:27.940Z</time>
      </trkpt>
      <trkpt lat="44.07981" lon="0.67557">
        <ele>128.7</ele>
        <time>2024-06-08T09:04:35.940Z</time>
      </trkpt>
      <trkpt lat="44.07987" lon="0.67545">
        <ele>128.7</ele>
        <time>2024-06-08T09:04:43.940Z</time>
      </trkpt>
      <trkpt lat="44.07991" lon="0.67541">
        <ele>128.7</ele>
        <time>2024-06-08T09:04:47.940Z</time>
      </trkpt>
      <trkpt lat="44.07996" lon="0.6754">
        <ele>128.6</ele>
        <time>2024-06-08T09:04:51.940Z</time>
      </trkpt>
      <trkpt lat="44.08005" lon="0.6753">
        <ele>129.1</ele>
        <time>2024-06-08T09:05:01.940Z</time>
      </trkpt>
      <trkpt lat="44.08011" lon="0.67519">
        <ele>129.5</ele>
        <time>2024-06-08T09:05:09.940Z</time>
      </trkpt>
      <trkpt lat="44.08017" lon="0.675">
        <ele>129.4</ele>
        <time>2024-06-08T09:05:21.940Z</time>
      </trkpt>
      <trkpt lat="44.08024" lon="0.67482">
        <ele>127.9</ele>
        <time>2024-06-08T09:05:33.940Z</time>
      </trkpt>
      <trkpt lat="44.08025" lon="0.67476">
        <ele>127.5</ele>
        <time>2024-06-08T09:05:37.940Z</time>
      </trkpt>
      <trkpt lat="44.08033" lon="0.67452">
        <ele>126.2</ele>
        <time>2024-06-08T09:05:53.940Z</time>
      </trkpt>
      <trkpt lat="44.0804" lon="0.67426">
        <ele>124.6</ele>
        <time>2024-06-08T09:06:09.940Z</time>
      </trkpt>
      <trkpt lat="44.08049" lon="0.674">
        <ele>122.4</ele>
        <time>2024-06-08T09:06:25.940Z</time>
      </trkpt>
      <trkpt lat="44.08077" lon="0.67294">
        <ele>115.5</ele>
        <time>2024-06-08T09:07:29.940Z</time>
      </trkpt>
      <trkpt lat="44.08081" lon="0.67281">
        <ele>114.4</ele>
        <time>2024-06-08T09:07:37.940Z</time>
      </trkpt>
      <trkpt lat="44.08083" lon="0.67278">
        <ele>114.1</ele>
        <time>2024-06-08T09:07:41.940Z</time>
      </trkpt>
      <trkpt lat="44.08085" lon="0.67265">
        <ele>113.6</ele>
        <time>2024-06-08T09:07:56.954Z</time>
      </trkpt>
      <trkpt lat="44.08089" lon="0.67253">
        <ele>113.1</ele>
        <time>2024-06-08T09:08:04.954Z</time>
      </trkpt>
      <trkpt lat="44.08095" lon="0.67226">
        <ele>112.1</ele>
        <time>2024-06-08T09:08:20.954Z</time>
      </trkpt>
      <trkpt lat="44.08099" lon="0.67214">
        <ele>111.7</ele>
        <time>2024-06-08T09:08:28.954Z</time>
      </trkpt>
      <trkpt lat="44.08104" lon="0.67187">
        <ele>110</ele>
        <time>2024-06-08T09:08:44.954Z</time>
      </trkpt>
      <trkpt lat="44.08106" lon="0.67173">
        <ele>109</ele>
        <time>2024-06-08T09:08:52.954Z</time>
      </trkpt>
      <trkpt lat="44.08122" lon="0.67109">
        <ele>105.5</ele>
        <time>2024-06-08T09:09:47.066Z</time>
      </trkpt>
      <trkpt lat="44.0813" lon="0.67085">
        <ele>104</ele>
        <time>2024-06-08T09:10:03.066Z</time>
      </trkpt>
      <trkpt lat="44.08139" lon="0.6705">
        <ele>100.8</ele>
        <time>2024-06-08T09:10:27.066Z</time>
      </trkpt>
      <trkpt lat="44.08141" lon="0.67044">
        <ele>100.8</ele>
        <time>2024-06-08T09:10:31.066Z</time>
      </trkpt>
      <trkpt lat="44.08147" lon="0.67016">
        <ele>100.3</ele>
        <time>2024-06-08T09:10:47.066Z</time>
      </trkpt>
      <trkpt lat="44.08149" lon="0.66993">
        <ele>99.8</ele>
        <time>2024-06-08T09:11:03.066Z</time>
      </trkpt>
      <trkpt lat="44.08137" lon="0.66947">
        <ele>95.7</ele>
        <time>2024-06-08T09:11:39.445Z</time>
      </trkpt>
      <trkpt lat="44.08137" lon="0.66944">
        <ele>95.3</ele>
        <time>2024-06-08T09:11:41.445Z</time>
      </trkpt>
      <trkpt lat="44.08133" lon="0.66934">
        <ele>95.1</ele>
        <time>2024-06-08T09:11:49.445Z</time>
      </trkpt>
      <trkpt lat="44.0813" lon="0.66922">
        <ele>94.8</ele>
        <time>2024-06-08T09:11:57.445Z</time>
      </trkpt>
      <trkpt lat="44.08129" lon="0.66901">
        <ele>92.7</ele>
        <time>2024-06-08T09:12:13.445Z</time>
      </trkpt>
      <trkpt lat="44.08125" lon="0.66887">
        <ele>92.2</ele>
        <time>2024-06-08T09:12:21.445Z</time>
      </trkpt>
      <trkpt lat="44.08124" lon="0.66878">
        <ele>91</ele>
        <time>2024-06-08T09:12:27.445Z</time>
      </trkpt>
      <trkpt lat="44.08122" lon="0.66875">
        <ele>91.1</ele>
        <time>2024-06-08T09:12:29.445Z</time>
      </trkpt>
      <trkpt lat="44.08112" lon="0.66833">
        <ele>88.6</ele>
        <time>2024-06-08T09:12:53.446Z</time>
      </trkpt>
      <trkpt lat="44.08108" lon="0.66821">
        <ele>88.3</ele>
        <time>2024-06-08T09:13:01.445Z</time>
      </trkpt>
      <trkpt lat="44.08101" lon="0.66813">
        <ele>87.8</ele>
        <time>2024-06-08T09:13:09.445Z</time>
      </trkpt>
      <trkpt lat="44.08091" lon="0.66807">
        <ele>87.2</ele>
        <time>2024-06-08T09:13:17.445Z</time>
      </trkpt>
      <trkpt lat="44.08086" lon="0.66806">
        <ele>86.9</ele>
        <time>2024-06-08T09:13:21.445Z</time>
      </trkpt>
      <trkpt lat="44.0807" lon="0.66807">
        <ele>86</ele>
        <time>2024-06-08T09:13:33.445Z</time>
      </trkpt>
      <trkpt lat="44.08066" lon="0.66809">
        <ele>86.1</ele>
        <time>2024-06-08T09:13:37.445Z</time>
      </trkpt>
      <trkpt lat="44.08065" lon="0.66811">
        <ele>86.4</ele>
        <time>2024-06-08T09:13:39.445Z</time>
      </trkpt>
      <trkpt lat="44.08055" lon="0.66812">
        <ele>85.4</ele>
        <time>2024-06-08T09:13:47.445Z</time>
      </trkpt>
      <trkpt lat="44.0805" lon="0.66814">
        <ele>85.4</ele>
        <time>2024-06-08T09:13:51.445Z</time>
      </trkpt>
      <trkpt lat="44.08035" lon="0.66815">
        <ele>83.9</ele>
        <time>2024-06-08T09:14:03.445Z</time>
      </trkpt>
      <trkpt lat="44.08029" lon="0.66814">
        <ele>82.8</ele>
        <time>2024-06-08T09:14:07.445Z</time>
      </trkpt>
      <trkpt lat="44.08024" lon="0.66813">
        <ele>82.2</ele>
        <time>2024-06-08T09:14:11.445Z</time>
      </trkpt>
      <trkpt lat="44.08018" lon="0.66816">
        <ele>82.4</ele>
        <time>2024-06-08T09:14:15.445Z</time>
      </trkpt>
      <trkpt lat="44.08013" lon="0.66816">
        <ele>82.1</ele>
        <time>2024-06-08T09:14:17.445Z</time>
      </trkpt>
      <trkpt lat="44.08007" lon="0.66814">
        <ele>81.1</ele>
        <time>2024-06-08T09:14:21.445Z</time>
      </trkpt>
      <trkpt lat="44.08003" lon="0.66816">
        <ele>81.3</ele>
        <time>2024-06-08T09:14:25.445Z</time>
      </trkpt>
      <trkpt lat="44.07997" lon="0.66817">
        <ele>80.9</ele>
        <time>2024-06-08T09:14:30.445Z</time>
      </trkpt>
      <trkpt lat="44.07988" lon="0.66819">
        <ele>80.5</ele>
        <time>2024-06-08T09:14:38.445Z</time>
      </trkpt>
      <trkpt lat="44.07979" lon="0.66823">
        <ele>80.6</ele>
        <time>2024-06-08T09:14:46.445Z</time>
      </trkpt>
      <trkpt lat="44.0797" lon="0.66824">
        <ele>80</ele>
        <time>2024-06-08T09:14:54.445Z</time>
      </trkpt>
      <trkpt lat="44.07934" lon="0.66841">
        <ele>77.4</ele>
        <time>2024-06-08T09:15:26.445Z</time>
      </trkpt>
      <trkpt lat="44.07927" lon="0.66844">
        <ele>76.8</ele>
        <time>2024-06-08T09:15:34.445Z</time>
      </trkpt>
      <trkpt lat="44.07921" lon="0.66845">
        <ele>76.1</ele>
        <time>2024-06-08T09:15:40.445Z</time>
      </trkpt>
      <trkpt lat="44.07916" lon="0.66848">
        <ele>76</ele>
        <time>2024-06-08T09:15:44.445Z</time>
      </trkpt>
      <trkpt lat="44.07898" lon="0.66851">
        <ele>74.3</ele>
        <time>2024-06-08T09:16:00.445Z</time>
      </trkpt>
      <trkpt lat="44.0789" lon="0.66851">
        <ele>73.3</ele>
        <time>2024-06-08T09:16:06.445Z</time>
      </trkpt>
      <trkpt lat="44.07884" lon="0.66854">
        <ele>73.2</ele>
        <time>2024-06-08T09:16:10.445Z</time>
      </trkpt>
      <trkpt lat="44.07875" lon="0.66852">
        <ele>71.8</ele>
        <time>2024-06-08T09:16:16.445Z</time>
      </trkpt>
      <trkpt lat="44.07872" lon="0.66853">
        <ele>71.7</ele>
        <time>2024-06-08T09:16:18.445Z</time>
      </trkpt>
      <trkpt lat="44.07869" lon="0.66852">
        <ele>71.3</ele>
        <time>2024-06-08T09:16:20.445Z</time>
      </trkpt>
      <trkpt lat="44.07864" lon="0.66854">
        <ele>71</ele>
        <time>2024-06-08T09:16:24.445Z</time>
      </trkpt>
      <trkpt lat="44.07847" lon="0.6685">
        <ele>69.8</ele>
        <time>2024-06-08T09:16:40.445Z</time>
      </trkpt>
      <trkpt lat="44.07843" lon="0.66851">
        <ele>69.9</ele>
        <time>2024-06-08T09:16:44.445Z</time>
      </trkpt>
      <trkpt lat="44.07838" lon="0.6685">
        <ele>69.6</ele>
        <time>2024-06-08T09:16:48.445Z</time>
      </trkpt>
      <trkpt lat="44.0783" lon="0.66852">
        <ele>69.9</ele>
        <time>2024-06-08T09:16:56.445Z</time>
      </trkpt>
      <trkpt lat="44.07814" lon="0.66852">
        <ele>69.4</ele>
        <time>2024-06-08T09:17:08.445Z</time>
      </trkpt>
      <trkpt lat="44.07809" lon="0.6685">
        <ele>68.7</ele>
        <time>2024-06-08T09:17:12.445Z</time>
      </trkpt>
      <trkpt lat="44.07805" lon="0.6685">
        <ele>68.6</ele>
        <time>2024-06-08T09:17:16.445Z</time>
      </trkpt>
      <trkpt lat="44.07796" lon="0.66849">
        <ele>67.8</ele>
        <time>2024-06-08T09:17:24.446Z</time>
      </trkpt>
      <trkpt lat="44.0779" lon="0.6685">
        <ele>67.8</ele>
        <time>2024-06-08T09:17:32.445Z</time>
      </trkpt>
      <trkpt lat="44.07787" lon="0.6685">
        <ele>67.5</ele>
        <time>2024-06-08T09:18:22.428Z</time>
      </trkpt>
      <trkpt lat="44.07773" lon="0.6686">
        <ele>68</ele>
        <time>2024-06-08T09:18:38.428Z</time>
      </trkpt>
      <trkpt lat="44.07764" lon="0.66862">
        <ele>67.2</ele>
        <time>2024-06-08T09:18:46.428Z</time>
      </trkpt>
      <trkpt lat="44.07737" lon="0.66876">
        <ele>67.8</ele>
        <time>2024-06-08T09:19:10.428Z</time>
      </trkpt>
      <trkpt lat="44.0772" lon="0.6689">
        <ele>69.6</ele>
        <time>2024-06-08T09:19:26.428Z</time>
      </trkpt>
      <trkpt lat="44.07704" lon="0.66899">
        <ele>68.7</ele>
        <time>2024-06-08T09:19:38.428Z</time>
      </trkpt>
      <trkpt lat="44.07696" lon="0.6691">
        <ele>69.6</ele>
        <time>2024-06-08T09:19:46.428Z</time>
      </trkpt>
      <trkpt lat="44.07686" lon="0.66919">
        <ele>69.8</ele>
        <time>2024-06-08T09:19:54.428Z</time>
      </trkpt>
      <trkpt lat="44.07664" lon="0.66928">
        <ele>67.8</ele>
        <time>2024-06-08T09:20:10.428Z</time>
      </trkpt>
      <trkpt lat="44.07655" lon="0.6693">
        <ele>67.2</ele>
        <time>2024-06-08T09:20:18.428Z</time>
      </trkpt>
      <trkpt lat="44.07633" lon="0.6693">
        <ele>65.2</ele>
        <time>2024-06-08T09:20:34.428Z</time>
      </trkpt>
      <trkpt lat="44.07627" lon="0.66931">
        <ele>64.9</ele>
        <time>2024-06-08T09:20:38.428Z</time>
      </trkpt>
      <trkpt lat="44.07622" lon="0.66934">
        <ele>64.9</ele>
        <time>2024-06-08T09:20:42.428Z</time>
      </trkpt>
      <trkpt lat="44.07612" lon="0.66942">
        <ele>64.9</ele>
        <time>2024-06-08T09:20:50.428Z</time>
      </trkpt>
      <trkpt lat="44.07604" lon="0.66952">
        <ele>65</ele>
        <time>2024-06-08T09:20:58.428Z</time>
      </trkpt>
      <trkpt lat="44.07591" lon="0.66984">
        <ele>66</ele>
        <time>2024-06-08T09:21:18.428Z</time>
      </trkpt>
      <trkpt lat="44.07587" lon="0.6699">
        <ele>66.3</ele>
        <time>2024-06-08T09:21:22.428Z</time>
      </trkpt>
      <trkpt lat="44.07582" lon="0.66993">
        <ele>66.7</ele>
        <time>2024-06-08T09:21:26.428Z</time>
      </trkpt>
      <trkpt lat="44.07573" lon="0.6699">
        <ele>67.7</ele>
        <time>2024-06-08T09:21:34.428Z</time>
      </trkpt>
      <trkpt lat="44.07566" lon="0.66986">
        <ele>68.1</ele>
        <time>2024-06-08T09:21:40.428Z</time>
      </trkpt>
      <trkpt lat="44.07564" lon="0.66983">
        <ele>68</ele>
        <time>2024-06-08T09:21:44.428Z</time>
      </trkpt>
      <trkpt lat="44.07548" lon="0.66975">
        <ele>69.3</ele>
        <time>2024-06-08T09:21:58.428Z</time>
      </trkpt>
      <trkpt lat="44.07544" lon="0.66975">
        <ele>70.3</ele>
        <time>2024-06-08T09:22:02.428Z</time>
      </trkpt>
      <trkpt lat="44.07517" lon="0.66961">
        <ele>72.9</ele>
        <time>2024-06-08T09:22:26.428Z</time>
      </trkpt>
      <trkpt lat="44.07506" lon="0.66953">
        <ele>72.8</ele>
        <time>2024-06-08T09:22:38.428Z</time>
      </trkpt>
      <trkpt lat="44.07494" lon="0.66938">
        <ele>71.2</ele>
        <time>2024-06-08T09:22:54.428Z</time>
      </trkpt>
      <trkpt lat="44.07489" lon="0.66936">
        <ele>71.3</ele>
        <time>2024-06-08T09:22:58.428Z</time>
      </trkpt>
      <trkpt lat="44.07486" lon="0.66933">
        <ele>71</ele>
        <time>2024-06-08T09:23:02.428Z</time>
      </trkpt>
      <trkpt lat="44.07457" lon="0.66914">
        <ele>69</ele>
        <time>2024-06-08T09:23:30.428Z</time>
      </trkpt>
      <trkpt lat="44.07447" lon="0.66911">
        <ele>68.6</ele>
        <time>2024-06-08T09:23:38.428Z</time>
      </trkpt>
      <trkpt lat="44.07442" lon="0.66908">
        <ele>68.1</ele>
        <time>2024-06-08T09:23:42.428Z</time>
      </trkpt>
      <trkpt lat="44.07437" lon="0.66902">
        <ele>67</ele>
        <time>2024-06-08T09:23:48.428Z</time>
      </trkpt>
      <trkpt lat="44.0743" lon="0.66904">
        <ele>67.4</ele>
        <time>2024-06-08T09:23:57.546Z</time>
      </trkpt>
      <trkpt lat="44.07426" lon="0.66903">
        <ele>67.3</ele>
        <time>2024-06-08T09:24:01.546Z</time>
      </trkpt>
      <trkpt lat="44.07424" lon="0.66904">
        <ele>67.5</ele>
        <time>2024-06-08T09:24:03.546Z</time>
      </trkpt>
      <trkpt lat="44.07414" lon="0.66901">
        <ele>67.4</ele>
        <time>2024-06-08T09:24:09.546Z</time>
      </trkpt>
      <trkpt lat="44.0741" lon="0.66897">
        <ele>67.2</ele>
        <time>2024-06-08T09:24:13.546Z</time>
      </trkpt>
      <trkpt lat="44.07391" lon="0.66864">
        <ele>66.9</ele>
        <time>2024-06-08T09:24:37.546Z</time>
      </trkpt>
      <trkpt lat="44.07388" lon="0.6686">
        <ele>67.1</ele>
        <time>2024-06-08T09:24:41.546Z</time>
      </trkpt>
      <trkpt lat="44.07383" lon="0.66857">
        <ele>67.3</ele>
        <time>2024-06-08T09:24:45.546Z</time>
      </trkpt>
      <trkpt lat="44.07375" lon="0.66849">
        <ele>67.8</ele>
        <time>2024-06-08T09:24:53.546Z</time>
      </trkpt>
      <trkpt lat="44.07368" lon="0.6684">
        <ele>68.3</ele>
        <time>2024-06-08T09:25:01.546Z</time>
      </trkpt>
      <trkpt lat="44.07364" lon="0.66832">
        <ele>68.5</ele>
        <time>2024-06-08T09:25:09.546Z</time>
      </trkpt>
      <trkpt lat="44.07351" lon="0.66799">
        <ele>69.8</ele>
        <time>2024-06-08T09:25:33.546Z</time>
      </trkpt>
      <trkpt lat="44.07348" lon="0.66794">
        <ele>70.5</ele>
        <time>2024-06-08T09:25:37.546Z</time>
      </trkpt>
      <trkpt lat="44.07342" lon="0.66784">
        <ele>71.5</ele>
        <time>2024-06-08T09:25:45.546Z</time>
      </trkpt>
      <trkpt lat="44.07328" lon="0.66763">
        <ele>71.7</ele>
        <time>2024-06-08T09:26:01.546Z</time>
      </trkpt>
      <trkpt lat="44.07326" lon="0.66758">
        <ele>71.2</ele>
        <time>2024-06-08T09:26:05.546Z</time>
      </trkpt>
      <trkpt lat="44.07322" lon="0.66753">
        <ele>71.1</ele>
        <time>2024-06-08T09:26:09.546Z</time>
      </trkpt>
      <trkpt lat="44.07316" lon="0.66742">
        <ele>70.7</ele>
        <time>2024-06-08T09:26:17.546Z</time>
      </trkpt>
      <trkpt lat="44.07313" lon="0.66738">
        <ele>70.8</ele>
        <time>2024-06-08T09:26:21.546Z</time>
      </trkpt>
      <trkpt lat="44.073" lon="0.66728">
        <ele>72</ele>
        <time>2024-06-08T09:26:33.546Z</time>
      </trkpt>
      <trkpt lat="44.07293" lon="0.66719">
        <ele>72.1</ele>
        <time>2024-06-08T09:26:41.546Z</time>
      </trkpt>
      <trkpt lat="44.07291" lon="0.66713">
        <ele>71.2</ele>
        <time>2024-06-08T09:26:45.546Z</time>
      </trkpt>
      <trkpt lat="44.07264" lon="0.66685">
        <ele>69.2</ele>
        <time>2024-06-08T09:27:13.546Z</time>
      </trkpt>
      <trkpt lat="44.07262" lon="0.66684">
        <ele>69.1</ele>
        <time>2024-06-08T09:27:15.546Z</time>
      </trkpt>
      <trkpt lat="44.07256" lon="0.66683">
        <ele>69.5</ele>
        <time>2024-06-08T09:27:19.546Z</time>
      </trkpt>
      <trkpt lat="44.07249" lon="0.66679">
        <ele>69.1</ele>
        <time>2024-06-08T09:27:25.546Z</time>
      </trkpt>
      <trkpt lat="44.07226" lon="0.66655">
        <ele>66.1</ele>
        <time>2024-06-08T09:27:49.546Z</time>
      </trkpt>
      <trkpt lat="44.07222" lon="0.66649">
        <ele>65.4</ele>
        <time>2024-06-08T09:27:57.546Z</time>
      </trkpt>
      <trkpt lat="44.07203" lon="0.66608">
        <ele>65.5</ele>
        <time>2024-06-08T09:28:25.546Z</time>
      </trkpt>
      <trkpt lat="44.07189" lon="0.66588">
        <ele>65.7</ele>
        <time>2024-06-08T09:28:41.546Z</time>
      </trkpt>
      <trkpt lat="44.07181" lon="0.66579">
        <ele>66.4</ele>
        <time>2024-06-08T09:28:49.546Z</time>
      </trkpt>
      <trkpt lat="44.07178" lon="0.66577">
        <ele>66.7</ele>
        <time>2024-06-08T09:28:53.546Z</time>
      </trkpt>
      <trkpt lat="44.07168" lon="0.66566">
        <ele>66.7</ele>
        <time>2024-06-08T09:29:01.546Z</time>
      </trkpt>
      <trkpt lat="44.07162" lon="0.66557">
        <ele>66.4</ele>
        <time>2024-06-08T09:29:11.546Z</time>
      </trkpt>
      <trkpt lat="44.07149" lon="0.66542">
        <ele>67.9</ele>
        <time>2024-06-08T09:29:27.546Z</time>
      </trkpt>
      <trkpt lat="44.07141" lon="0.66534">
        <ele>69</ele>
        <time>2024-06-08T09:29:35.546Z</time>
      </trkpt>
      <trkpt lat="44.07137" lon="0.6653">
        <ele>69.6</ele>
        <time>2024-06-08T09:29:39.546Z</time>
      </trkpt>
      <trkpt lat="44.07131" lon="0.6652">
        <ele>68.5</ele>
        <time>2024-06-08T09:29:47.546Z</time>
      </trkpt>
      <trkpt lat="44.07122" lon="0.66493">
        <ele>66.4</ele>
        <time>2024-06-08T09:30:07.546Z</time>
      </trkpt>
      <trkpt lat="44.07117" lon="0.66484">
        <ele>66.9</ele>
        <time>2024-06-08T09:30:13.546Z</time>
      </trkpt>
      <trkpt lat="44.07117" lon="0.66482">
        <ele>66.7</ele>
        <time>2024-06-08T09:30:15.547Z</time>
      </trkpt>
      <trkpt lat="44.07115" lon="0.66478">
        <ele>66.7</ele>
        <time>2024-06-08T09:30:19.546Z</time>
      </trkpt>
      <trkpt lat="44.07102" lon="0.66458">
        <ele>66.3</ele>
        <time>2024-06-08T09:30:40.546Z</time>
      </trkpt>
      <trkpt lat="44.07093" lon="0.6645">
        <ele>66.4</ele>
        <time>2024-06-08T09:30:50.546Z</time>
      </trkpt>
      <trkpt lat="44.07088" lon="0.66448">
        <ele>66.8</ele>
        <time>2024-06-08T09:30:56.546Z</time>
      </trkpt>
      <trkpt lat="44.07082" lon="0.66439">
        <ele>66.5</ele>
        <time>2024-06-08T09:31:04.547Z</time>
      </trkpt>
      <trkpt lat="44.07079" lon="0.66434">
        <ele>66.4</ele>
        <time>2024-06-08T09:31:08.546Z</time>
      </trkpt>
      <trkpt lat="44.07074" lon="0.66429">
        <ele>66.8</ele>
        <time>2024-06-08T09:31:12.546Z</time>
      </trkpt>
      <trkpt lat="44.07071" lon="0.66424">
        <ele>66.8</ele>
        <time>2024-06-08T09:31:16.546Z</time>
      </trkpt>
      <trkpt lat="44.07061" lon="0.66414">
        <ele>67.7</ele>
        <time>2024-06-08T09:31:24.546Z</time>
      </trkpt>
      <trkpt lat="44.07057" lon="0.66405">
        <ele>66.6</ele>
        <time>2024-06-08T09:31:28.546Z</time>
      </trkpt>
      <trkpt lat="44.07051" lon="0.66396">
        <ele>65.9</ele>
        <time>2024-06-08T09:31:36.546Z</time>
      </trkpt>
      <trkpt lat="44.07044" lon="0.66382">
        <ele>65.3</ele>
        <time>2024-06-08T09:31:48.546Z</time>
      </trkpt>
      <trkpt lat="44.07033" lon="0.66367">
        <ele>65.4</ele>
        <time>2024-06-08T09:32:04.546Z</time>
      </trkpt>
      <trkpt lat="44.07023" lon="0.66347">
        <ele>64.5</ele>
        <time>2024-06-08T09:32:16.546Z</time>
      </trkpt>
      <trkpt lat="44.07019" lon="0.66342">
        <ele>64.9</ele>
        <time>2024-06-08T09:32:20.546Z</time>
      </trkpt>
      <trkpt lat="44.07015" lon="0.66338">
        <ele>65.8</ele>
        <time>2024-06-08T09:32:24.546Z</time>
      </trkpt>
      <trkpt lat="44.07009" lon="0.66328">
        <ele>66.3</ele>
        <time>2024-06-08T09:32:32.546Z</time>
      </trkpt>
      <trkpt lat="44.07004" lon="0.66325">
        <ele>66.7</ele>
        <time>2024-06-08T09:32:36.546Z</time>
      </trkpt>
      <trkpt lat="44.07002" lon="0.6632">
        <ele>66.2</ele>
        <time>2024-06-08T09:32:40.546Z</time>
      </trkpt>
      <trkpt lat="44.06998" lon="0.66316">
        <ele>66.1</ele>
        <time>2024-06-08T09:32:46.546Z</time>
      </trkpt>
      <trkpt lat="44.06998" lon="0.66313">
        <ele>65.4</ele>
        <time>2024-06-08T09:32:50.546Z</time>
      </trkpt>
      <trkpt lat="44.06994" lon="0.66306">
        <ele>64.9</ele>
        <time>2024-06-08T09:32:54.546Z</time>
      </trkpt>
      <trkpt lat="44.06976" lon="0.66289">
        <ele>66.7</ele>
        <time>2024-06-08T09:33:12.546Z</time>
      </trkpt>
      <trkpt lat="44.06963" lon="0.6628">
        <ele>66.5</ele>
        <time>2024-06-08T09:33:24.546Z</time>
      </trkpt>
      <trkpt lat="44.06959" lon="0.66279">
        <ele>66.6</ele>
        <time>2024-06-08T09:33:28.546Z</time>
      </trkpt>
      <trkpt lat="44.06957" lon="0.66275">
        <ele>66.2</ele>
        <time>2024-06-08T09:33:32.546Z</time>
      </trkpt>
      <trkpt lat="44.06949" lon="0.66269">
        <ele>66.1</ele>
        <time>2024-06-08T09:33:40.546Z</time>
      </trkpt>
      <trkpt lat="44.06946" lon="0.66265">
        <ele>65.6</ele>
        <time>2024-06-08T09:33:44.546Z</time>
      </trkpt>
      <trkpt lat="44.06938" lon="0.66245">
        <ele>63.2</ele>
        <time>2024-06-08T09:33:58.546Z</time>
      </trkpt>
      <trkpt lat="44.06936" lon="0.6622">
        <ele>63.3</ele>
        <time>2024-06-08T09:34:10.546Z</time>
      </trkpt>
      <trkpt lat="44.0694" lon="0.6621">
        <ele>62.9</ele>
        <time>2024-06-08T09:34:18.546Z</time>
      </trkpt>
      <trkpt lat="44.06941" lon="0.66195">
        <ele>62.9</ele>
        <time>2024-06-08T09:34:26.546Z</time>
      </trkpt>
      <trkpt lat="44.0694" lon="0.66176">
        <ele>63.3</ele>
        <time>2024-06-08T09:34:36.547Z</time>
      </trkpt>
      <trkpt lat="44.06941" lon="0.66173">
        <ele>63.1</ele>
        <time>2024-06-08T09:34:38.546Z</time>
      </trkpt>
      <trkpt lat="44.06942" lon="0.6616">
        <ele>63.2</ele>
        <time>2024-06-08T09:34:48.546Z</time>
      </trkpt>
      <trkpt lat="44.06939" lon="0.66145">
        <ele>64.6</ele>
        <time>2024-06-08T09:34:56.546Z</time>
      </trkpt>
      <trkpt lat="44.06941" lon="0.66112">
        <ele>64.8</ele>
        <time>2024-06-08T09:35:14.546Z</time>
      </trkpt>
      <trkpt lat="44.06938" lon="0.6608">
        <ele>64.6</ele>
        <time>2024-06-08T09:35:34.546Z</time>
      </trkpt>
      <trkpt lat="44.06933" lon="0.66067">
        <ele>65.1</ele>
        <time>2024-06-08T09:35:42.546Z</time>
      </trkpt>
      <trkpt lat="44.0693" lon="0.66034">
        <ele>65.6</ele>
        <time>2024-06-08T09:36:04.546Z</time>
      </trkpt>
      <trkpt lat="44.06928" lon="0.66026">
        <ele>66.1</ele>
        <time>2024-06-08T09:36:08.546Z</time>
      </trkpt>
      <trkpt lat="44.06928" lon="0.66019">
        <ele>65.8</ele>
        <time>2024-06-08T09:36:12.546Z</time>
      </trkpt>
      <trkpt lat="44.06918" lon="0.65983">
        <ele>66.6</ele>
        <time>2024-06-08T09:36:36.546Z</time>
      </trkpt>
      <trkpt lat="44.06915" lon="0.65976">
        <ele>66.8</ele>
        <time>2024-06-08T09:36:40.546Z</time>
      </trkpt>
      <trkpt lat="44.06909" lon="0.65951">
        <ele>67.2</ele>
        <time>2024-06-08T09:36:56.546Z</time>
      </trkpt>
      <trkpt lat="44.06907" lon="0.65939">
        <ele>67.2</ele>
        <time>2024-06-08T09:37:04.546Z</time>
      </trkpt>
      <trkpt lat="44.06907" lon="0.65925">
        <ele>66.8</ele>
        <time>2024-06-08T09:37:12.546Z</time>
      </trkpt>
      <trkpt lat="44.069" lon="0.65901">
        <ele>67.4</ele>
        <time>2024-06-08T09:37:28.546Z</time>
      </trkpt>
      <trkpt lat="44.06897" lon="0.65896">
        <ele>67.8</ele>
        <time>2024-06-08T09:37:32.546Z</time>
      </trkpt>
      <trkpt lat="44.06896" lon="0.6589">
        <ele>67.7</ele>
        <time>2024-06-08T09:37:36.546Z</time>
      </trkpt>
      <trkpt lat="44.0689" lon="0.65881">
        <ele>68.2</ele>
        <time>2024-06-08T09:37:44.546Z</time>
      </trkpt>
      <trkpt lat="44.06876" lon="0.65864">
        <ele>70</ele>
        <time>2024-06-08T09:38:00.546Z</time>
      </trkpt>
      <trkpt lat="44.0687" lon="0.65855">
        <ele>70.4</ele>
        <time>2024-06-08T09:38:08.546Z</time>
      </trkpt>
      <trkpt lat="44.0686" lon="0.65837">
        <ele>69.8</ele>
        <time>2024-06-08T09:38:24.546Z</time>
      </trkpt>
      <trkpt lat="44.06853" lon="0.65827">
        <ele>70</ele>
        <time>2024-06-08T09:38:32.546Z</time>
      </trkpt>
      <trkpt lat="44.06842" lon="0.65818">
        <ele>71.4</ele>
        <time>2024-06-08T09:38:44.546Z</time>
      </trkpt>
      <trkpt lat="44.06838" lon="0.65815">
        <ele>72</ele>
        <time>2024-06-08T09:38:48.546Z</time>
      </trkpt>
      <trkpt lat="44.06834" lon="0.65814">
        <ele>72.8</ele>
        <time>2024-06-08T09:38:52.546Z</time>
      </trkpt>
      <trkpt lat="44.06827" lon="0.65809">
        <ele>73.9</ele>
        <time>2024-06-08T09:39:00.546Z</time>
      </trkpt>
      <trkpt lat="44.06816" lon="0.65799">
        <ele>75.4</ele>
        <time>2024-06-08T09:39:12.547Z</time>
      </trkpt>
      <trkpt lat="44.06813" lon="0.65793">
        <ele>75.5</ele>
        <time>2024-06-08T09:39:16.546Z</time>
      </trkpt>
      <trkpt lat="44.06805" lon="0.65787">
        <ele>76.4</ele>
        <time>2024-06-08T09:39:24.546Z</time>
      </trkpt>
      <trkpt lat="44.06791" lon="0.65772">
        <ele>76.9</ele>
        <time>2024-06-08T09:39:40.546Z</time>
      </trkpt>
      <trkpt lat="44.06773" lon="0.65755">
        <ele>77.6</ele>
        <time>2024-06-08T09:39:58.546Z</time>
      </trkpt>
      <trkpt lat="44.0677" lon="0.6575">
        <ele>77.4</ele>
        <time>2024-06-08T09:40:04.546Z</time>
      </trkpt>
      <trkpt lat="44.06769" lon="0.65747">
        <ele>77.4</ele>
        <time>2024-06-08T09:40:06.547Z</time>
      </trkpt>
      <trkpt lat="44.06763" lon="0.65739">
        <ele>77.9</ele>
        <time>2024-06-08T09:40:14.546Z</time>
      </trkpt>
      <trkpt lat="44.0675" lon="0.65729">
        <ele>79.5</ele>
        <time>2024-06-08T09:40:26.546Z</time>
      </trkpt>
      <trkpt lat="44.06744" lon="0.65722">
        <ele>79.8</ele>
        <time>2024-06-08T09:40:34.546Z</time>
      </trkpt>
      <trkpt lat="44.06733" lon="0.65713">
        <ele>80.5</ele>
        <time>2024-06-08T09:40:58.546Z</time>
      </trkpt>
      <trkpt lat="44.06723" lon="0.65705">
        <ele>81.1</ele>
        <time>2024-06-08T09:42:13.306Z</time>
      </trkpt>
      <trkpt lat="44.06706" lon="0.65665">
        <ele>79.2</ele>
        <time>2024-06-08T09:42:45.306Z</time>
      </trkpt>
      <trkpt lat="44.06698" lon="0.6564">
        <ele>77.8</ele>
        <time>2024-06-08T09:43:01.306Z</time>
      </trkpt>
      <trkpt lat="44.06695" lon="0.65627">
        <ele>77.1</ele>
        <time>2024-06-08T09:43:09.306Z</time>
      </trkpt>
      <trkpt lat="44.06689" lon="0.65573">
        <ele>75.4</ele>
        <time>2024-06-08T09:43:41.306Z</time>
      </trkpt>
      <trkpt lat="44.06678" lon="0.65492">
        <ele>72.8</ele>
        <time>2024-06-08T09:44:29.306Z</time>
      </trkpt>
      <trkpt lat="44.06673" lon="0.65466">
        <ele>71.9</ele>
        <time>2024-06-08T09:44:45.306Z</time>
      </trkpt>
      <trkpt lat="44.06669" lon="0.65453">
        <ele>71.4</ele>
        <time>2024-06-08T09:44:53.306Z</time>
      </trkpt>
      <trkpt lat="44.06665" lon="0.65443">
        <ele>71.3</ele>
        <time>2024-06-08T09:45:01.306Z</time>
      </trkpt>
      <trkpt lat="44.06662" lon="0.6543">
        <ele>71.8</ele>
        <time>2024-06-08T09:45:09.306Z</time>
      </trkpt>
      <trkpt lat="44.06657" lon="0.65418">
        <ele>72</ele>
        <time>2024-06-08T09:45:17.306Z</time>
      </trkpt>
      <trkpt lat="44.06655" lon="0.65411">
        <ele>71.6</ele>
        <time>2024-06-08T09:45:21.306Z</time>
      </trkpt>
      <trkpt lat="44.06644" lon="0.65389">
        <ele>69.4</ele>
        <time>2024-06-08T09:45:37.306Z</time>
      </trkpt>
      <trkpt lat="44.06632" lon="0.65367">
        <ele>67.3</ele>
        <time>2024-06-08T09:45:53.306Z</time>
      </trkpt>
      <trkpt lat="44.06594" lon="0.65288">
        <ele>66.4</ele>
        <time>2024-06-08T09:46:49.306Z</time>
      </trkpt>
      <trkpt lat="44.06581" lon="0.6527">
        <ele>70.1</ele>
        <time>2024-06-08T09:47:05.306Z</time>
      </trkpt>
      <trkpt lat="44.06574" lon="0.65263">
        <ele>71</ele>
        <time>2024-06-08T09:47:13.306Z</time>
      </trkpt>
      <trkpt lat="44.06571" lon="0.65257">
        <ele>71.6</ele>
        <time>2024-06-08T09:47:17.306Z</time>
      </trkpt>
      <trkpt lat="44.06567" lon="0.65253">
        <ele>72.1</ele>
        <time>2024-06-08T09:47:23.306Z</time>
      </trkpt>
      <trkpt lat="44.06558" lon="0.6525">
        <ele>72.1</ele>
        <time>2024-06-08T09:47:31.765Z</time>
      </trkpt>
      <trkpt lat="44.0654" lon="0.65229">
        <ele>73.9</ele>
        <time>2024-06-08T09:47:49.765Z</time>
      </trkpt>
      <trkpt lat="44.06536" lon="0.65227">
        <ele>74.2</ele>
        <time>2024-06-08T09:47:53.765Z</time>
      </trkpt>
      <trkpt lat="44.06531" lon="0.65222">
        <ele>74.9</ele>
        <time>2024-06-08T09:47:57.765Z</time>
      </trkpt>
      <trkpt lat="44.06531" lon="0.65221">
        <ele>74.9</ele>
        <time>2024-06-08T09:47:58.765Z</time>
      </trkpt>
      <trkpt lat="44.06525" lon="0.65215">
        <ele>75.1</ele>
        <time>2024-06-08T09:48:02.765Z</time>
      </trkpt>
      <trkpt lat="44.06518" lon="0.65209">
        <ele>75.1</ele>
        <time>2024-06-08T09:48:10.765Z</time>
      </trkpt>
      <trkpt lat="44.06511" lon="0.65206">
        <ele>75.1</ele>
        <time>2024-06-08T09:48:29.871Z</time>
      </trkpt>
      <trkpt lat="44.06507" lon="0.65202">
        <ele>75.4</ele>
        <time>2024-06-08T09:48:33.871Z</time>
      </trkpt>
      <trkpt lat="44.06497" lon="0.65199">
        <ele>75.4</ele>
        <time>2024-06-08T09:48:41.871Z</time>
      </trkpt>
      <trkpt lat="44.06491" lon="0.65195">
        <ele>75.6</ele>
        <time>2024-06-08T09:48:47.871Z</time>
      </trkpt>
      <trkpt lat="44.06489" lon="0.6519">
        <ele>75.8</ele>
        <time>2024-06-08T09:48:51.872Z</time>
      </trkpt>
      <trkpt lat="44.06481" lon="0.65185">
        <ele>75.6</ele>
        <time>2024-06-08T09:49:04.276Z</time>
      </trkpt>
      <trkpt lat="44.06476" lon="0.65183">
        <ele>75.6</ele>
        <time>2024-06-08T09:49:12.276Z</time>
      </trkpt>
      <trkpt lat="44.06471" lon="0.65181">
        <ele>75.5</ele>
        <time>2024-06-08T09:49:16.276Z</time>
      </trkpt>
      <trkpt lat="44.06463" lon="0.6518">
        <ele>75.9</ele>
        <time>2024-06-08T09:49:24.276Z</time>
      </trkpt>
      <trkpt lat="44.06457" lon="0.65179">
        <ele>76.1</ele>
        <time>2024-06-08T09:49:28.276Z</time>
      </trkpt>
      <trkpt lat="44.06451" lon="0.65174">
        <ele>76.5</ele>
        <time>2024-06-08T09:49:32.276Z</time>
      </trkpt>
      <trkpt lat="44.06444" lon="0.65177">
        <ele>76.7</ele>
        <time>2024-06-08T09:49:38.276Z</time>
      </trkpt>
      <trkpt lat="44.06434" lon="0.65176">
        <ele>77.4</ele>
        <time>2024-06-08T09:49:46.276Z</time>
      </trkpt>
      <trkpt lat="44.06432" lon="0.65173">
        <ele>77.6</ele>
        <time>2024-06-08T09:49:48.276Z</time>
      </trkpt>
      <trkpt lat="44.06424" lon="0.65169">
        <ele>78.4</ele>
        <time>2024-06-08T09:49:54.276Z</time>
      </trkpt>
      <trkpt lat="44.06417" lon="0.65168">
        <ele>78.9</ele>
        <time>2024-06-08T09:49:58.276Z</time>
      </trkpt>
      <trkpt lat="44.06412" lon="0.65169">
        <ele>79.3</ele>
        <time>2024-06-08T09:50:02.276Z</time>
      </trkpt>
      <trkpt lat="44.06404" lon="0.65168">
        <ele>79.9</ele>
        <time>2024-06-08T09:50:09.276Z</time>
      </trkpt>
      <trkpt lat="44.06401" lon="0.65164">
        <ele>80.2</ele>
        <time>2024-06-08T09:50:11.276Z</time>
      </trkpt>
      <trkpt lat="44.064" lon="0.65164">
        <ele>80.3</ele>
        <time>2024-06-08T09:50:12.276Z</time>
      </trkpt>
      <trkpt lat="44.06397" lon="0.65164">
        <ele>80.5</ele>
        <time>2024-06-08T09:50:14.276Z</time>
      </trkpt>
      <trkpt lat="44.06381" lon="0.65158">
        <ele>81.8</ele>
        <time>2024-06-08T09:50:34.276Z</time>
      </trkpt>
      <trkpt lat="44.06375" lon="0.65159">
        <ele>82.2</ele>
        <time>2024-06-08T09:50:38.276Z</time>
      </trkpt>
      <trkpt lat="44.06372" lon="0.65158">
        <ele>82.3</ele>
        <time>2024-06-08T09:50:40.276Z</time>
      </trkpt>
      <trkpt lat="44.06364" lon="0.6515">
        <ele>82.9</ele>
        <time>2024-06-08T09:50:48.276Z</time>
      </trkpt>
      <trkpt lat="44.06355" lon="0.65143">
        <ele>83.4</ele>
        <time>2024-06-08T09:50:57.276Z</time>
      </trkpt>
      <trkpt lat="44.06349" lon="0.65126">
        <ele>83.9</ele>
        <time>2024-06-08T09:51:18.955Z</time>
      </trkpt>
      <trkpt lat="44.06347" lon="0.65115">
        <ele>84</ele>
        <time>2024-06-08T09:51:26.955Z</time>
      </trkpt>
    </trkseg>
  </trk>
</gpx>